sensor_id;sensor_type;location;lat;lon;timestamp;temperature;humidity
4826;DHT22;2427;50.934;6.776;2023-04-30T00:01:38;8.30;1.00
4826;DHT22;2427;50.934;6.776;2023-04-30T00:04:04;8.20;1.00
4826;DHT22;2427;50.934;6.776;2023-04-30T00:06:29;8.20;99.90
4826;DHT22;2427;50.934;6.776;2023-04-30T00:08:55;8.10;99.90
4826;DHT22;2427;50.934;6.776;2023-04-30T00:11:21;8.10;99.90
4826;DHT22;2427;50.934;6.776;2023-04-30T00:13:47;8.00;99.90
4826;DHT22;2427;50.934;6.776;2023-04-30T00:16:12;8.00;1.00
4826;DHT22;2427;50.934;6.776;2023-04-30T00:18:38;8.00;1.00
4826;DHT22;2427;50.934;6.776;2023-04-30T00:21:03;8.00;99.90
4826;DHT22;2427;50.934;6.776;2023-04-30T00:23:29;8.00;99.90
4826;DHT22;2427;50.934;6.776;2023-04-30T00:25:55;7.90;99.90
4826;DHT22;2427;50.934;6.776;2023-04-30T00:28:20;7.90;1.00
4826;DHT22;2427;50.934;6.776;2023-04-30T00:30:46;7.90;1.00
4826;DHT22;2427;50.934;6.776;2023-04-30T00:33:12;7.90;99.90
4826;DHT22;2427;50.934;6.776;2023-04-30T00:35:37;7.80;99.90
4826;DHT22;2427;50.934;6.776;2023-04-30T00:38:03;7.80;99.90
4826;DHT22;2427;50.934;6.776;2023-04-30T00:40:28;7.80;99.90
4826;DHT22;2427;50.934;6.776;2023-04-30T00:42:54;7.70;99.90
4826;DHT22;2427;50.934;6.776;2023-04-30T00:45:21;7.60;99.90
4826;DHT22;2427;50.934;6.776;2023-04-30T00:47:47;7.60;1.00
4826;DHT22;2427;50.934;6.776;2023-04-30T00:50:14;7.60;1.00
4826;DHT22;2427;50.934;6.776;2023-04-30T00:52:41;7.50;1.00
4826;DHT22;2427;50.934;6.776;2023-04-30T00:55:07;7.50;1.00
4826;DHT22;2427;50.934;6.776;2023-04-30T00:57:34;7.40;1.00
4826;DHT22;2427;50.934;6.776;2023-04-30T01:00:01;7.40;1.00
4826;DHT22;2427;50.934;6.776;2023-04-30T01:12:54;7.20;99.90
4826;DHT22;2427;50.934;6.776;2023-04-30T01:15:37;7.10;99.90
4826;DHT22;2427;50.934;6.776;2023-04-30T01:18:20;7.10;99.90
4826;DHT22;2427;50.934;6.776;2023-04-30T01:20:58;7.10;99.90
4826;DHT22;2427;50.934;6.776;2023-04-30T01:26:19;7.10;1.00
4826;DHT22;2427;50.934;6.776;2023-04-30T01:28:53;7.10;1.00
4826;DHT22;2427;50.934;6.776;2023-04-30T01:31:19;7.20;1.00
4826;DHT22;2427;50.934;6.776;2023-04-30T01:33:45;7.20;1.00
4826;DHT22;2427;50.934;6.776;2023-04-30T01:42:19;7.20;1.00
4826;DHT22;2427;50.934;6.776;2023-04-30T01:48:34;7.20;1.00
4826;DHT22;2427;50.934;6.776;2023-04-30T01:50:48;7.10;1.00
4826;DHT22;2427;50.934;6.776;2023-04-30T01:53:26;7.10;1.00
4826;DHT22;2427;50.934;6.776;2023-04-30T01:56:05;7.10;1.00
4826;DHT22;2427;50.934;6.776;2023-04-30T01:58:34;7.00;1.00
4826;DHT22;2427;50.934;6.776;2023-04-30T02:01:02;7.00;1.00
4826;DHT22;2427;50.934;6.776;2023-04-30T02:03:27;6.90;1.00
4826;DHT22;2427;50.934;6.776;2023-04-30T02:05:54;6.90;1.00
4826;DHT22;2427;50.934;6.776;2023-04-30T02:08:19;6.90;1.00
4826;DHT22;2427;50.934;6.776;2023-04-30T02:10:45;6.90;1.00
4826;DHT22;2427;50.934;6.776;2023-04-30T02:13:11;6.90;1.00
4826;DHT22;2427;50.934;6.776;2023-04-30T02:15:36;6.90;1.00
4826;DHT22;2427;50.934;6.776;2023-04-30T02:18:02;6.90;1.00
4826;DHT22;2427;50.934;6.776;2023-04-30T02:20:28;6.80;1.00
4826;DHT22;2427;50.934;6.776;2023-04-30T02:22:53;6.80;1.00
4826;DHT22;2427;50.934;6.776;2023-04-30T02:25:19;6.70;1.00
4826;DHT22;2427;50.934;6.776;2023-04-30T02:27:44;6.70;1.00
4826;DHT22;2427;50.934;6.776;2023-04-30T02:30:10;6.70;1.00
4826;DHT22;2427;50.934;6.776;2023-04-30T02:32:36;6.70;1.00
4826;DHT22;2427;50.934;6.776;2023-04-30T02:35:01;6.70;1.00
4826;DHT22;2427;50.934;6.776;2023-04-30T02:37:27;6.60;1.00
4826;DHT22;2427;50.934;6.776;2023-04-30T02:39:53;6.60;1.00
4826;DHT22;2427;50.934;6.776;2023-04-30T02:42:18;6.60;1.00
4826;DHT22;2427;50.934;6.776;2023-04-30T02:44:44;6.50;1.00
4826;DHT22;2427;50.934;6.776;2023-04-30T02:47:10;6.60;1.00
4826;DHT22;2427;50.934;6.776;2023-04-30T02:49:35;6.50;1.00
4826;DHT22;2427;50.934;6.776;2023-04-30T02:52:01;6.50;1.00
4826;DHT22;2427;50.934;6.776;2023-04-30T02:54:26;6.40;1.00
4826;DHT22;2427;50.934;6.776;2023-04-30T02:56:52;6.40;1.00
4826;DHT22;2427;50.934;6.776;2023-04-30T02:59:18;6.30;1.00
4826;DHT22;2427;50.934;6.776;2023-04-30T03:01:43;6.30;1.00
4826;DHT22;2427;50.934;6.776;2023-04-30T03:04:09;6.20;1.00
4826;DHT22;2427;50.934;6.776;2023-04-30T03:06:34;6.20;1.00
4826;DHT22;2427;50.934;6.776;2023-04-30T03:09:00;6.20;1.00
4826;DHT22;2427;50.934;6.776;2023-04-30T03:11:26;6.20;1.00
4826;DHT22;2427;50.934;6.776;2023-04-30T03:13:51;6.10;1.00
4826;DHT22;2427;50.934;6.776;2023-04-30T03:16:18;6.10;1.00
4826;DHT22;2427;50.934;6.776;2023-04-30T03:18:48;6.10;3.50
4826;DHT22;2427;50.934;6.776;2023-04-30T03:21:14;6.10;22.30
4826;DHT22;2427;50.934;6.776;2023-04-30T03:23:39;6.10;47.30
4826;DHT22;2427;50.934;6.776;2023-04-30T03:26:05;6.10;64.40
4826;DHT22;2427;50.934;6.776;2023-04-30T03:28:33;6.10;92.90
4826;DHT22;2427;50.934;6.776;2023-04-30T03:30:58;6.10;84.90
4826;DHT22;2427;50.934;6.776;2023-04-30T03:33:25;6.10;89.70
4826;DHT22;2427;50.934;6.776;2023-04-30T03:35:50;6.00;98.10
4826;DHT22;2427;50.934;6.776;2023-04-30T03:38:16;6.10;99.90
4826;DHT22;2427;50.934;6.776;2023-04-30T03:40:42;6.00;99.90
4826;DHT22;2427;50.934;6.776;2023-04-30T03:43:07;6.00;99.90
4826;DHT22;2427;50.934;6.776;2023-04-30T03:45:33;5.90;99.90
4826;DHT22;2427;50.934;6.776;2023-04-30T03:47:58;5.90;99.90
4826;DHT22;2427;50.934;6.776;2023-04-30T03:50:24;5.90;99.90
4826;DHT22;2427;50.934;6.776;2023-04-30T03:52:50;5.80;99.90
4826;DHT22;2427;50.934;6.776;2023-04-30T03:55:16;5.80;99.90
4826;DHT22;2427;50.934;6.776;2023-04-30T03:57:42;5.80;99.90
4826;DHT22;2427;50.934;6.776;2023-04-30T04:00:09;5.80;99.90
4826;DHT22;2427;50.934;6.776;2023-04-30T04:02:35;5.80;99.90
4826;DHT22;2427;50.934;6.776;2023-04-30T04:05:02;5.80;99.90
4826;DHT22;2427;50.934;6.776;2023-04-30T04:07:28;5.80;99.90
4826;DHT22;2427;50.934;6.776;2023-04-30T04:09:53;5.80;99.90
4826;DHT22;2427;50.934;6.776;2023-04-30T04:12:19;5.80;99.90
4826;DHT22;2427;50.934;6.776;2023-04-30T04:14:45;5.70;99.90
4826;DHT22;2427;50.934;6.776;2023-04-30T04:17:10;5.70;99.90
4826;DHT22;2427;50.934;6.776;2023-04-30T04:19:36;5.70;99.90
4826;DHT22;2427;50.934;6.776;2023-04-30T04:22:02;5.80;99.90
4826;DHT22;2427;50.934;6.776;2023-04-30T04:24:27;5.80;99.90
4826;DHT22;2427;50.934;6.776;2023-04-30T04:26:53;5.80;99.90
4826;DHT22;2427;50.934;6.776;2023-04-30T04:29:19;5.80;99.90
4826;DHT22;2427;50.934;6.776;2023-04-30T04:31:45;5.80;99.90
4826;DHT22;2427;50.934;6.776;2023-04-30T04:34:13;5.90;99.90
4826;DHT22;2427;50.934;6.776;2023-04-30T04:36:38;5.90;99.90
4826;DHT22;2427;50.934;6.776;2023-04-30T04:39:04;5.90;99.90
4826;DHT22;2427;50.934;6.776;2023-04-30T04:41:31;6.00;99.90
4826;DHT22;2427;50.934;6.776;2023-04-30T04:43:58;6.00;99.90
4826;DHT22;2427;50.934;6.776;2023-04-30T04:46:24;6.00;99.90
4826;DHT22;2427;50.934;6.776;2023-04-30T04:48:51;6.00;99.90
4826;DHT22;2427;50.934;6.776;2023-04-30T04:51:17;6.10;99.90
4826;DHT22;2427;50.934;6.776;2023-04-30T04:53:43;6.20;99.90
4826;DHT22;2427;50.934;6.776;2023-04-30T04:56:14;6.20;99.90
4826;DHT22;2427;50.934;6.776;2023-04-30T04:58:41;6.20;99.90
4826;DHT22;2427;50.934;6.776;2023-04-30T05:01:07;6.30;99.90
4826;DHT22;2427;50.934;6.776;2023-04-30T05:03:34;6.40;99.90
4826;DHT22;2427;50.934;6.776;2023-04-30T05:06:03;6.40;99.90
4826;DHT22;2427;50.934;6.776;2023-04-30T05:08:29;6.50;99.90
4826;DHT22;2427;50.934;6.776;2023-04-30T05:10:54;6.60;99.90
4826;DHT22;2427;50.934;6.776;2023-04-30T05:13:20;6.60;99.90
4826;DHT22;2427;50.934;6.776;2023-04-30T05:15:46;6.70;99.90
4826;DHT22;2427;50.934;6.776;2023-04-30T05:18:12;7.00;99.90
4826;DHT22;2427;50.934;6.776;2023-04-30T05:20:37;7.70;99.90
4826;DHT22;2427;50.934;6.776;2023-04-30T05:23:03;8.20;99.90
4826;DHT22;2427;50.934;6.776;2023-04-30T05:25:29;8.50;99.90
4826;DHT22;2427;50.934;6.776;2023-04-30T05:27:54;8.80;22.00
4826;DHT22;2427;50.934;6.776;2023-04-30T05:30:20;8.90;1.00
4826;DHT22;2427;50.934;6.776;2023-04-30T05:32:49;8.90;1.00
4826;DHT22;2427;50.934;6.776;2023-04-30T05:35:17;8.90;1.00
4826;DHT22;2427;50.934;6.776;2023-04-30T05:37:43;8.90;1.00
4826;DHT22;2427;50.934;6.776;2023-04-30T05:40:09;8.80;1.00
4826;DHT22;2427;50.934;6.776;2023-04-30T05:42:35;8.80;1.00
4826;DHT22;2427;50.934;6.776;2023-04-30T05:45:01;8.70;1.00
4826;DHT22;2427;50.934;6.776;2023-04-30T05:47:27;8.80;1.00
4826;DHT22;2427;50.934;6.776;2023-04-30T05:49:52;8.90;1.00
4826;DHT22;2427;50.934;6.776;2023-04-30T05:52:18;9.40;1.00
4826;DHT22;2427;50.934;6.776;2023-04-30T05:54:43;9.90;1.00
4826;DHT22;2427;50.934;6.776;2023-04-30T05:57:09;10.00;98.60
4826;DHT22;2427;50.934;6.776;2023-04-30T05:59:35;10.00;1.00
4826;DHT22;2427;50.934;6.776;2023-04-30T06:02:00;9.90;1.00
4826;DHT22;2427;50.934;6.776;2023-04-30T06:04:26;9.80;1.00
4826;DHT22;2427;50.934;6.776;2023-04-30T06:06:52;9.80;1.00
4826;DHT22;2427;50.934;6.776;2023-04-30T06:09:21;9.70;1.00
4826;DHT22;2427;50.934;6.776;2023-04-30T06:11:46;9.70;1.00
4826;DHT22;2427;50.934;6.776;2023-04-30T06:14:15;9.70;6.00
4826;DHT22;2427;50.934;6.776;2023-04-30T06:16:42;9.70;23.70
4826;DHT22;2427;50.934;6.776;2023-04-30T06:19:08;9.70;30.30
4826;DHT22;2427;50.934;6.776;2023-04-30T06:21:33;9.80;27.90
4826;DHT22;2427;50.934;6.776;2023-04-30T06:23:59;9.80;17.90
4826;DHT22;2427;50.934;6.776;2023-04-30T06:26:24;9.90;11.50
4826;DHT22;2427;50.934;6.776;2023-04-30T06:28:50;9.80;1.00
4826;DHT22;2427;50.934;6.776;2023-04-30T06:31:16;9.90;1.00
4826;DHT22;2427;50.934;6.776;2023-04-30T06:33:41;9.90;1.00
4826;DHT22;2427;50.934;6.776;2023-04-30T06:36:07;10.00;1.00
4826;DHT22;2427;50.934;6.776;2023-04-30T06:38:32;10.00;1.00
4826;DHT22;2427;50.934;6.776;2023-04-30T06:40:58;10.00;1.00
4826;DHT22;2427;50.934;6.776;2023-04-30T06:43:23;10.10;1.00
4826;DHT22;2427;50.934;6.776;2023-04-30T06:45:49;10.10;1.00
4826;DHT22;2427;50.934;6.776;2023-04-30T06:48:15;10.20;99.90
4826;DHT22;2427;50.934;6.776;2023-04-30T06:50:40;10.20;1.00
4826;DHT22;2427;50.934;6.776;2023-04-30T06:53:13;10.20;1.00
4826;DHT22;2427;50.934;6.776;2023-04-30T06:55:39;10.30;99.90
4826;DHT22;2427;50.934;6.776;2023-04-30T06:58:05;10.30;99.90
4826;DHT22;2427;50.934;6.776;2023-04-30T07:00:31;10.40;99.90
4826;DHT22;2427;50.934;6.776;2023-04-30T07:03:03;10.50;99.90
4826;DHT22;2427;50.934;6.776;2023-04-30T07:05:29;10.50;99.90
4826;DHT22;2427;50.934;6.776;2023-04-30T07:07:56;10.60;82.60
4826;DHT22;2427;50.934;6.776;2023-04-30T07:10:22;10.60;1.00
4826;DHT22;2427;50.934;6.776;2023-04-30T07:12:48;10.60;99.90
4826;DHT22;2427;50.934;6.776;2023-04-30T07:15:13;10.70;1.00
4826;DHT22;2427;50.934;6.776;2023-04-30T07:17:39;10.70;99.90
4826;DHT22;2427;50.934;6.776;2023-04-30T07:20:07;10.80;99.90
4826;DHT22;2427;50.934;6.776;2023-04-30T07:22:33;10.80;99.90
4826;DHT22;2427;50.934;6.776;2023-04-30T07:24:58;10.90;99.90
4826;DHT22;2427;50.934;6.776;2023-04-30T07:27:34;11.00;99.90
4826;DHT22;2427;50.934;6.776;2023-04-30T07:30:06;11.10;1.00
4826;DHT22;2427;50.934;6.776;2023-04-30T07:32:55;11.10;1.00
4826;DHT22;2427;50.934;6.776;2023-04-30T07:35:26;11.10;1.00
4826;DHT22;2427;50.934;6.776;2023-04-30T07:38:05;11.20;1.00
4826;DHT22;2427;50.934;6.776;2023-04-30T07:40:31;11.30;1.00
4826;DHT22;2427;50.934;6.776;2023-04-30T07:42:57;11.40;1.00
4826;DHT22;2427;50.934;6.776;2023-04-30T07:45:22;11.40;1.00
4826;DHT22;2427;50.934;6.776;2023-04-30T07:47:48;11.50;1.00
4826;DHT22;2427;50.934;6.776;2023-04-30T07:50:14;11.60;1.00
4826;DHT22;2427;50.934;6.776;2023-04-30T07:52:42;11.60;1.00
4826;DHT22;2427;50.934;6.776;2023-04-30T07:55:08;11.70;1.00
4826;DHT22;2427;50.934;6.776;2023-04-30T07:57:36;11.80;1.00
4826;DHT22;2427;50.934;6.776;2023-04-30T08:00:01;11.80;1.00
4826;DHT22;2427;50.934;6.776;2023-04-30T08:02:28;11.90;1.00
4826;DHT22;2427;50.934;6.776;2023-04-30T08:04:53;11.90;1.00
4826;DHT22;2427;50.934;6.776;2023-04-30T08:07:19;12.00;1.00
4826;DHT22;2427;50.934;6.776;2023-04-30T08:09:46;12.10;1.00
4826;DHT22;2427;50.934;6.776;2023-04-30T08:12:11;12.10;1.00
4826;DHT22;2427;50.934;6.776;2023-04-30T08:14:37;12.20;1.00
4826;DHT22;2427;50.934;6.776;2023-04-30T08:17:02;12.30;1.00
4826;DHT22;2427;50.934;6.776;2023-04-30T08:19:28;12.40;1.00
4826;DHT22;2427;50.934;6.776;2023-04-30T08:21:54;12.50;1.00
4826;DHT22;2427;50.934;6.776;2023-04-30T08:24:20;12.60;1.00
4826;DHT22;2427;50.934;6.776;2023-04-30T08:26:45;12.60;1.00
4826;DHT22;2427;50.934;6.776;2023-04-30T08:29:11;12.70;1.00
4826;DHT22;2427;50.934;6.776;2023-04-30T08:31:36;12.80;1.00
4826;DHT22;2427;50.934;6.776;2023-04-30T08:34:02;12.90;1.00
4826;DHT22;2427;50.934;6.776;2023-04-30T08:36:28;13.00;1.00
4826;DHT22;2427;50.934;6.776;2023-04-30T08:38:53;13.10;1.00
4826;DHT22;2427;50.934;6.776;2023-04-30T08:41:24;13.20;1.00
4826;DHT22;2427;50.934;6.776;2023-04-30T08:43:51;13.30;1.00
4826;DHT22;2427;50.934;6.776;2023-04-30T08:46:19;13.40;1.00
4826;DHT22;2427;50.934;6.776;2023-04-30T08:48:45;13.50;1.00
4826;DHT22;2427;50.934;6.776;2023-04-30T08:51:12;13.60;1.00
4826;DHT22;2427;50.934;6.776;2023-04-30T08:53:39;13.70;99.90
4826;DHT22;2427;50.934;6.776;2023-04-30T08:56:09;13.70;99.90
4826;DHT22;2427;50.934;6.776;2023-04-30T08:58:35;13.80;99.90
4826;DHT22;2427;50.934;6.776;2023-04-30T09:01:02;13.90;99.90
4826;DHT22;2427;50.934;6.776;2023-04-30T09:03:29;14.10;99.90
4826;DHT22;2427;50.934;6.776;2023-04-30T09:05:55;14.20;99.90
4826;DHT22;2427;50.934;6.776;2023-04-30T09:08:40;14.30;99.90
4826;DHT22;2427;50.934;6.776;2023-04-30T09:13:45;14.50;99.90
4826;DHT22;2427;50.934;6.776;2023-04-30T09:16:11;14.70;99.90
4826;DHT22;2427;50.934;6.776;2023-04-30T09:18:38;14.80;99.90
4826;DHT22;2427;50.934;6.776;2023-04-30T09:21:03;15.00;99.90
4826;DHT22;2427;50.934;6.776;2023-04-30T09:23:32;15.10;99.90
4826;DHT22;2427;50.934;6.776;2023-04-30T09:25:58;15.00;99.90
4826;DHT22;2427;50.934;6.776;2023-04-30T09:28:23;15.00;99.90
4826;DHT22;2427;50.934;6.776;2023-04-30T09:30:51;14.90;99.90
4826;DHT22;2427;50.934;6.776;2023-04-30T09:33:17;15.00;99.90
4826;DHT22;2427;50.934;6.776;2023-04-30T09:35:43;15.10;99.90
4826;DHT22;2427;50.934;6.776;2023-04-30T09:38:28;15.20;99.90
4826;DHT22;2427;50.934;6.776;2023-04-30T09:40:56;15.40;99.90
4826;DHT22;2427;50.934;6.776;2023-04-30T09:43:22;15.50;99.90
4826;DHT22;2427;50.934;6.776;2023-04-30T09:45:48;15.70;99.90
4826;DHT22;2427;50.934;6.776;2023-04-30T09:48:21;15.80;99.90
4826;DHT22;2427;50.934;6.776;2023-04-30T09:50:48;15.90;99.90
4826;DHT22;2427;50.934;6.776;2023-04-30T09:53:14;16.00;99.90
4826;DHT22;2427;50.934;6.776;2023-04-30T09:55:46;16.00;99.90
4826;DHT22;2427;50.934;6.776;2023-04-30T09:58:13;15.80;99.90
4826;DHT22;2427;50.934;6.776;2023-04-30T10:00:41;15.90;99.90
4826;DHT22;2427;50.934;6.776;2023-04-30T10:03:12;16.00;99.90
4826;DHT22;2427;50.934;6.776;2023-04-30T10:05:47;16.10;99.90
4826;DHT22;2427;50.934;6.776;2023-04-30T10:08:24;16.30;99.90
4826;DHT22;2427;50.934;6.776;2023-04-30T10:10:58;16.40;99.90
4826;DHT22;2427;50.934;6.776;2023-04-30T10:14:02;16.50;99.90
4826;DHT22;2427;50.934;6.776;2023-04-30T10:19:22;16.70;99.90
4826;DHT22;2427;50.934;6.776;2023-04-30T10:21:48;16.90;99.90
4826;DHT22;2427;50.934;6.776;2023-04-30T10:24:15;16.90;99.90
4826;DHT22;2427;50.934;6.776;2023-04-30T10:26:44;16.90;99.90
4826;DHT22;2427;50.934;6.776;2023-04-30T10:29:13;17.10;99.90
4826;DHT22;2427;50.934;6.776;2023-04-30T10:31:45;17.10;99.90
4826;DHT22;2427;50.934;6.776;2023-04-30T10:37:30;17.20;99.90
4826;DHT22;2427;50.934;6.776;2023-04-30T10:39:54;17.40;99.90
4826;DHT22;2427;50.934;6.776;2023-04-30T10:42:20;17.70;99.90
4826;DHT22;2427;50.934;6.776;2023-04-30T10:44:45;17.90;99.90
4826;DHT22;2427;50.934;6.776;2023-04-30T10:47:11;18.00;99.90
4826;DHT22;2427;50.934;6.776;2023-04-30T10:49:37;18.10;99.90
4826;DHT22;2427;50.934;6.776;2023-04-30T10:52:03;18.10;99.90
4826;DHT22;2427;50.934;6.776;2023-04-30T10:54:35;18.20;99.90
4826;DHT22;2427;50.934;6.776;2023-04-30T10:57:14;18.10;99.90
4826;DHT22;2427;50.934;6.776;2023-04-30T11:00:05;18.30;99.90
4826;DHT22;2427;50.934;6.776;2023-04-30T11:02:43;18.40;99.90
4826;DHT22;2427;50.934;6.776;2023-04-30T11:07:55;18.60;99.90
4826;DHT22;2427;50.934;6.776;2023-04-30T11:10:22;18.90;99.90
4826;DHT22;2427;50.934;6.776;2023-04-30T11:12:50;19.20;99.90
4826;DHT22;2427;50.934;6.776;2023-04-30T11:15:20;19.20;99.90
4826;DHT22;2427;50.934;6.776;2023-04-30T11:17:49;19.30;99.90
4826;DHT22;2427;50.934;6.776;2023-04-30T11:20:20;19.30;99.90
4826;DHT22;2427;50.934;6.776;2023-04-30T11:22:46;19.40;99.90
4826;DHT22;2427;50.934;6.776;2023-04-30T11:25:12;19.70;99.90
4826;DHT22;2427;50.934;6.776;2023-04-30T11:27:41;20.00;99.90
4826;DHT22;2427;50.934;6.776;2023-04-30T11:30:12;20.00;99.90
4826;DHT22;2427;50.934;6.776;2023-04-30T11:32:40;20.00;99.90
4826;DHT22;2427;50.934;6.776;2023-04-30T11:35:06;20.30;99.90
4826;DHT22;2427;50.934;6.776;2023-04-30T11:37:37;20.50;99.90
4826;DHT22;2427;50.934;6.776;2023-04-30T11:40:05;20.50;99.90
4826;DHT22;2427;50.934;6.776;2023-04-30T11:42:32;20.50;99.90
4826;DHT22;2427;50.934;6.776;2023-04-30T11:47:48;20.60;99.90
4826;DHT22;2427;50.934;6.776;2023-04-30T11:50:15;20.40;99.90
4826;DHT22;2427;50.934;6.776;2023-04-30T11:52:42;20.30;99.90
4826;DHT22;2427;50.934;6.776;2023-04-30T11:55:18;20.30;99.90
4826;DHT22;2427;50.934;6.776;2023-04-30T11:57:46;20.30;99.90
4826;DHT22;2427;50.934;6.776;2023-04-30T12:02:39;21.00;99.90
4826;DHT22;2427;50.934;6.776;2023-04-30T12:05:11;21.20;99.90
4826;DHT22;2427;50.934;6.776;2023-04-30T12:07:38;21.40;99.90
4826;DHT22;2427;50.934;6.776;2023-04-30T12:10:04;21.30;99.90
4826;DHT22;2427;50.934;6.776;2023-04-30T12:12:30;21.40;99.90
4826;DHT22;2427;50.934;6.776;2023-04-30T12:14:56;21.70;99.90
4826;DHT22;2427;50.934;6.776;2023-04-30T12:17:33;22.00;99.90
4826;DHT22;2427;50.934;6.776;2023-04-30T12:19:58;22.20;99.90
4826;DHT22;2427;50.934;6.776;2023-04-30T12:22:24;21.90;99.90
4826;DHT22;2427;50.934;6.776;2023-04-30T12:24:50;21.50;99.90
4826;DHT22;2427;50.934;6.776;2023-04-30T12:27:16;21.40;99.90
4826;DHT22;2427;50.934;6.776;2023-04-30T12:29:45;21.30;99.90
4826;DHT22;2427;50.934;6.776;2023-04-30T12:32:11;21.10;99.90
4826;DHT22;2427;50.934;6.776;2023-04-30T12:34:41;20.90;99.90
4826;DHT22;2427;50.934;6.776;2023-04-30T12:37:06;20.90;99.90
4826;DHT22;2427;50.934;6.776;2023-04-30T12:39:35;21.00;99.90
4826;DHT22;2427;50.934;6.776;2023-04-30T12:42:02;21.20;99.90
4826;DHT22;2427;50.934;6.776;2023-04-30T12:44:28;21.50;99.90
4826;DHT22;2427;50.934;6.776;2023-04-30T12:46:56;21.60;99.90
4826;DHT22;2427;50.934;6.776;2023-04-30T12:49:29;21.90;99.90
4826;DHT22;2427;50.934;6.776;2023-04-30T12:52:13;22.40;99.90
4826;DHT22;2427;50.934;6.776;2023-04-30T12:54:40;22.60;99.90
4826;DHT22;2427;50.934;6.776;2023-04-30T12:57:07;22.50;99.90
4826;DHT22;2427;50.934;6.776;2023-04-30T12:59:37;22.50;99.90
4826;DHT22;2427;50.934;6.776;2023-04-30T13:02:13;22.40;99.90
4826;DHT22;2427;50.934;6.776;2023-04-30T13:04:43;22.10;99.90
4826;DHT22;2427;50.934;6.776;2023-04-30T13:07:09;21.70;99.90
4826;DHT22;2427;50.934;6.776;2023-04-30T13:09:35;21.30;99.90
4826;DHT22;2427;50.934;6.776;2023-04-30T13:12:02;21.30;99.90
4826;DHT22;2427;50.934;6.776;2023-04-30T13:14:29;21.20;99.90
4826;DHT22;2427;50.934;6.776;2023-04-30T13:16:54;21.50;99.90
4826;DHT22;2427;50.934;6.776;2023-04-30T13:19:20;22.00;99.90
4826;DHT22;2427;50.934;6.776;2023-04-30T13:21:46;22.30;99.90
4826;DHT22;2427;50.934;6.776;2023-04-30T13:24:12;22.80;99.90
4826;DHT22;2427;50.934;6.776;2023-04-30T13:26:38;23.40;99.90
4826;DHT22;2427;50.934;6.776;2023-04-30T13:29:03;23.60;99.90
4826;DHT22;2427;50.934;6.776;2023-04-30T13:31:29;23.70;99.90
4826;DHT22;2427;50.934;6.776;2023-04-30T13:33:55;23.40;99.90
4826;DHT22;2427;50.934;6.776;2023-04-30T13:36:21;23.10;99.90
4826;DHT22;2427;50.934;6.776;2023-04-30T13:38:46;23.00;99.90
4826;DHT22;2427;50.934;6.776;2023-04-30T13:41:12;23.20;99.90
4826;DHT22;2427;50.934;6.776;2023-04-30T13:43:38;24.60;99.90
4826;DHT22;2427;50.934;6.776;2023-04-30T13:46:09;25.10;99.90
4826;DHT22;2427;50.934;6.776;2023-04-30T13:48:35;25.10;99.90
4826;DHT22;2427;50.934;6.776;2023-04-30T13:51:01;25.10;99.90
4826;DHT22;2427;50.934;6.776;2023-04-30T13:53:26;24.70;99.90
4826;DHT22;2427;50.934;6.776;2023-04-30T13:55:53;24.10;99.90
4826;DHT22;2427;50.934;6.776;2023-04-30T13:58:19;24.60;99.90
4826;DHT22;2427;50.934;6.776;2023-04-30T14:00:45;25.20;99.90
4826;DHT22;2427;50.934;6.776;2023-04-30T14:03:10;26.50;99.90
4826;DHT22;2427;50.934;6.776;2023-04-30T14:05:37;26.80;99.90
4826;DHT22;2427;50.934;6.776;2023-04-30T14:08:04;26.80;99.90
4826;DHT22;2427;50.934;6.776;2023-04-30T14:10:30;26.30;99.90
4826;DHT22;2427;50.934;6.776;2023-04-30T14:12:55;26.50;99.90
4826;DHT22;2427;50.934;6.776;2023-04-30T14:15:21;26.10;99.90
4826;DHT22;2427;50.934;6.776;2023-04-30T14:17:47;25.40;97.10
4826;DHT22;2427;50.934;6.776;2023-04-30T14:20:12;24.70;95.70
4826;DHT22;2427;50.934;6.776;2023-04-30T14:22:38;25.30;97.80
4826;DHT22;2427;50.934;6.776;2023-04-30T14:25:05;25.90;96.50
4826;DHT22;2427;50.934;6.776;2023-04-30T14:27:30;25.80;95.50
4826;DHT22;2427;50.934;6.776;2023-04-30T14:29:56;26.10;96.10
4826;DHT22;2427;50.934;6.776;2023-04-30T14:32:24;26.70;96.80
4826;DHT22;2427;50.934;6.776;2023-04-30T14:34:50;28.50;99.20
4826;DHT22;2427;50.934;6.776;2023-04-30T14:37:15;29.80;99.50
4826;DHT22;2427;50.934;6.776;2023-04-30T14:39:41;29.20;96.50
4826;DHT22;2427;50.934;6.776;2023-04-30T14:42:08;28.20;92.70
4826;DHT22;2427;50.934;6.776;2023-04-30T14:44:34;26.30;87.10
4826;DHT22;2427;50.934;6.776;2023-04-30T14:47:00;25.20;82.20
4826;DHT22;2427;50.934;6.776;2023-04-30T14:49:27;24.20;79.80
4826;DHT22;2427;50.934;6.776;2023-04-30T14:51:52;23.50;79.10
4826;DHT22;2427;50.934;6.776;2023-04-30T14:54:18;23.10;78.40
4826;DHT22;2427;50.934;6.776;2023-04-30T14:56:44;22.80;77.30
4826;DHT22;2427;50.934;6.776;2023-04-30T14:59:10;22.50;78.00
4826;DHT22;2427;50.934;6.776;2023-04-30T15:01:36;22.30;76.90
4826;DHT22;2427;50.934;6.776;2023-04-30T15:04:02;22.00;74.80
4826;DHT22;2427;50.934;6.776;2023-04-30T15:06:28;21.80;73.20
4826;DHT22;2427;50.934;6.776;2023-04-30T15:08:54;21.70;76.10
4826;DHT22;2427;50.934;6.776;2023-04-30T15:11:20;21.80;79.20
4826;DHT22;2427;50.934;6.776;2023-04-30T15:13:46;22.30;81.70
4826;DHT22;2427;50.934;6.776;2023-04-30T15:16:11;22.60;83.50
4826;DHT22;2427;50.934;6.776;2023-04-30T15:18:37;22.80;83.90
4826;DHT22;2427;50.934;6.776;2023-04-30T15:21:03;22.90;86.70
4826;DHT22;2427;50.934;6.776;2023-04-30T15:23:28;23.70;89.80
4826;DHT22;2427;50.934;6.776;2023-04-30T15:25:54;25.00;92.90
4826;DHT22;2427;50.934;6.776;2023-04-30T15:28:21;26.90;94.80
4826;DHT22;2427;50.934;6.776;2023-04-30T15:30:49;28.60;95.10
4826;DHT22;2427;50.934;6.776;2023-04-30T15:33:14;30.20;96.10
4826;DHT22;2427;50.934;6.776;2023-04-30T15:35:40;31.30;94.80
4826;DHT22;2427;50.934;6.776;2023-04-30T15:38:06;31.90;93.50
4826;DHT22;2427;50.934;6.776;2023-04-30T15:40:32;32.10;92.20
4826;DHT22;2427;50.934;6.776;2023-04-30T15:42:57;31.90;90.00
4826;DHT22;2427;50.934;6.776;2023-04-30T15:45:23;31.80;84.00
4826;DHT22;2427;50.934;6.776;2023-04-30T15:47:50;31.30;76.90
4826;DHT22;2427;50.934;6.776;2023-04-30T15:50:15;31.00;72.90
4826;DHT22;2427;50.934;6.776;2023-04-30T15:52:41;31.00;70.90
4826;DHT22;2427;50.934;6.776;2023-04-30T15:55:08;30.40;65.10
4826;DHT22;2427;50.934;6.776;2023-04-30T15:57:33;29.70;60.60
4826;DHT22;2427;50.934;6.776;2023-04-30T15:59:59;29.20;57.80
4826;DHT22;2427;50.934;6.776;2023-04-30T16:02:24;28.70;55.40
4826;DHT22;2427;50.934;6.776;2023-04-30T16:04:50;28.20;53.90
4826;DHT22;2427;50.934;6.776;2023-04-30T16:07:15;27.40;50.70
4826;DHT22;2427;50.934;6.776;2023-04-30T16:09:41;26.50;49.30
4826;DHT22;2427;50.934;6.776;2023-04-30T16:12:10;25.70;46.30
4826;DHT22;2427;50.934;6.776;2023-04-30T16:14:36;24.80;44.50
4826;DHT22;2427;50.934;6.776;2023-04-30T16:17:02;24.10;43.10
4826;DHT22;2427;50.934;6.776;2023-04-30T16:19:27;23.10;41.70
4826;DHT22;2427;50.934;6.776;2023-04-30T16:21:53;22.60;42.40
4826;DHT22;2427;50.934;6.776;2023-04-30T16:24:18;22.20;41.80
4826;DHT22;2427;50.934;6.776;2023-04-30T16:26:44;21.80;42.40
4826;DHT22;2427;50.934;6.776;2023-04-30T16:29:09;21.60;43.80
4826;DHT22;2427;50.934;6.776;2023-04-30T16:31:35;21.30;44.40
4826;DHT22;2427;50.934;6.776;2023-04-30T16:34:01;21.00;45.40
4826;DHT22;2427;50.934;6.776;2023-04-30T16:36:26;20.80;46.40
4826;DHT22;2427;50.934;6.776;2023-04-30T16:38:52;20.70;60.10
4826;DHT22;2427;50.934;6.776;2023-04-30T16:41:18;20.50;50.10
4826;DHT22;2427;50.934;6.776;2023-04-30T16:43:44;20.30;51.20
4826;DHT22;2427;50.934;6.776;2023-04-30T16:46:10;20.20;53.30
4826;DHT22;2427;50.934;6.776;2023-04-30T16:48:36;20.10;55.80
4826;DHT22;2427;50.934;6.776;2023-04-30T16:51:03;19.90;57.30